createdAt,value
2023-03-29T00:02:14.065Z,2.15
2023-03-29T00:04:41.500Z,2.17
2023-03-29T00:07:09.080Z,2.10
2023-03-29T00:09:36.042Z,1.67
2023-03-29T00:12:04.042Z,2.45
2023-03-29T00:14:31.294Z,1.70
2023-03-29T00:16:59.317Z,2.17
2023-03-29T00:19:26.481Z,2.03
2023-03-29T00:21:53.367Z,1.65
2023-03-29T00:24:21.525Z,2.38
2023-03-29T00:26:48.851Z,2.05
2023-03-29T00:29:16.202Z,1.73
2023-03-29T00:31:46.100Z,1.80
2023-03-29T00:34:13.034Z,2.53
2023-03-29T00:36:40.547Z,2.28
2023-03-29T00:39:07.554Z,3.15
2023-03-29T00:41:34.680Z,2.80
2023-03-29T00:44:04.782Z,2.90
2023-03-29T00:46:32.585Z,2.35
2023-03-29T00:49:07.347Z,2.63
2023-03-29T00:51:37.567Z,1.88
2023-03-29T00:54:06.751Z,1.95
2023-03-29T00:56:40.050Z,1.95
2023-03-29T00:59:28.421Z,2.33
2023-03-29T01:02:02.850Z,2.30
2023-03-29T01:04:40.886Z,2.63
2023-03-29T01:07:22.559Z,2.30
2023-03-29T01:09:56.239Z,2.92
2023-03-29T01:12:30.157Z,1.95
2023-03-29T01:15:04.400Z,2.63
2023-03-29T01:17:31.898Z,2.63
2023-03-29T01:20:19.385Z,2.08
2023-03-29T01:23:14.255Z,2.58
2023-03-29T01:25:57.975Z,2.90
2023-03-29T01:28:34.351Z,2.30
2023-03-29T01:31:23.337Z,2.15
2023-03-29T01:33:58.933Z,2.60
2023-03-29T01:36:41.613Z,2.17
2023-03-29T01:39:08.621Z,2.35
2023-03-29T01:42:15.780Z,2.00
2023-03-29T01:45:16.202Z,3.00
2023-03-29T01:47:56.223Z,2.83
2023-03-29T01:51:05.953Z,3.00
2023-03-29T01:53:57.181Z,2.17
2023-03-29T01:56:28.895Z,2.60
2023-03-29T01:59:02.553Z,2.63
2023-03-29T02:01:34.990Z,2.30
2023-03-29T02:04:06.284Z,3.20
2023-03-29T02:06:34.321Z,2.50
2023-03-29T02:09:01.710Z,2.63
2023-03-29T02:11:29.661Z,2.47
2023-03-29T02:13:57.851Z,2.72
2023-03-29T02:16:24.994Z,2.55
2023-03-29T02:18:54.355Z,2.25
2023-03-29T02:21:34.609Z,2.80
2023-03-29T02:24:06.674Z,2.72
2023-03-29T02:26:33.905Z,2.60
2023-03-29T02:29:01.192Z,2.45
2023-03-29T02:32:06.960Z,2.70
2023-03-29T02:34:42.081Z,2.25
2023-03-29T02:37:13.246Z,3.38
2023-03-29T02:39:41.386Z,2.13
2023-03-29T02:42:10.090Z,2.30
2023-03-29T02:44:40.941Z,2.10
2023-03-29T02:47:23.616Z,1.98
2023-03-29T02:49:50.731Z,2.70
2023-03-29T02:52:33.656Z,2.85
2023-03-29T02:55:03.357Z,2.13
2023-03-29T02:57:32.534Z,2.40
2023-03-29T03:00:01.198Z,2.70
2023-03-29T03:02:28.137Z,2.50
2023-03-29T03:04:55.224Z,1.48
2023-03-29T03:07:22.156Z,1.88
2023-03-29T03:09:49.192Z,2.30
2023-03-29T03:12:16.210Z,1.95
2023-03-29T03:14:43.369Z,1.95
2023-03-29T03:17:10.261Z,2.25
2023-03-29T03:19:37.127Z,2.20
2023-03-29T03:22:06.149Z,1.83
2023-03-29T03:24:32.994Z,2.45
2023-03-29T03:26:59.958Z,2.90
2023-03-29T03:29:26.816Z,2.67
2023-03-29T03:31:54.292Z,2.35
2023-03-29T03:34:21.387Z,2.58
2023-03-29T03:36:48.350Z,2.15
2023-03-29T03:39:15.194Z,3.08
2023-03-29T03:41:42.035Z,2.83
2023-03-29T03:44:08.928Z,2.17
2023-03-29T03:46:36.088Z,2.25
2023-03-29T03:49:03.169Z,2.70
2023-03-29T03:51:30.080Z,2.10
2023-03-29T03:53:56.933Z,2.17
2023-03-29T03:56:23.771Z,2.60
2023-03-29T03:58:50.614Z,2.45
2023-03-29T04:01:18.345Z,2.70
2023-03-29T04:03:46.064Z,2.58
2023-03-29T04:06:12.974Z,1.70
2023-03-29T04:08:40.718Z,1.75
2023-03-29T04:11:07.843Z,2.00
2023-03-29T04:13:35.010Z,2.13
2023-03-29T04:16:02.041Z,2.63
2023-03-29T04:18:29.036Z,3.70
2023-03-29T04:20:55.946Z,2.15
2023-03-29T04:23:22.767Z,2.60
2023-03-29T04:25:49.652Z,2.25
2023-03-29T04:28:16.634Z,2.60
2023-03-29T04:30:43.504Z,2.50
2023-03-29T04:33:10.587Z,2.92
2023-03-29T04:35:38.043Z,2.72
2023-03-29T04:38:04.874Z,2.45
2023-03-29T04:40:31.948Z,1.90
2023-03-29T04:43:00.281Z,2.92
2023-03-29T04:45:27.481Z,3.28
2023-03-29T04:47:59.934Z,3.13
2023-03-29T04:50:26.954Z,3.30
2023-03-29T04:52:53.808Z,2.38
2023-03-29T04:55:20.691Z,2.15
2023-03-29T04:57:47.525Z,2.03
2023-03-29T05:00:15.659Z,2.22
2023-03-29T05:02:46.450Z,1.63
2023-03-29T05:05:14.356Z,2.00
2023-03-29T05:07:41.331Z,2.08
2023-03-29T05:10:09.461Z,2.70
2023-03-29T05:12:37.008Z,2.58
2023-03-29T05:15:08.457Z,2.35
2023-03-29T05:17:35.635Z,3.72
2023-03-29T05:20:09.352Z,2.65
2023-03-29T05:22:36.761Z,2.65
2023-03-29T05:25:03.798Z,2.90
2023-03-29T05:27:30.964Z,2.33
2023-03-29T05:29:58.004Z,2.33
2023-03-29T05:32:24.981Z,2.42
2023-03-29T05:34:51.884Z,2.47
2023-03-29T05:37:19.421Z,2.30
2023-03-29T05:39:46.318Z,2.17
2023-03-29T05:42:15.720Z,2.72
2023-03-29T05:44:42.616Z,3.92
2023-03-29T05:47:09.453Z,3.97
2023-03-29T05:49:38.247Z,4.55
2023-03-29T05:52:06.896Z,4.53
2023-03-29T05:54:33.839Z,4.90
2023-03-29T05:57:00.699Z,3.78
2023-03-29T05:59:29.805Z,3.60
2023-03-29T06:01:57.071Z,3.15
2023-03-29T06:04:24.696Z,3.47
2023-03-29T06:06:53.232Z,3.85
2023-03-29T06:09:20.245Z,6.07
2023-03-29T06:11:47.829Z,5.25
2023-03-29T06:14:15.756Z,2.00
2023-03-29T06:16:43.442Z,2.65
2023-03-29T06:19:10.553Z,2.67
2023-03-29T06:21:37.428Z,2.28
2023-03-29T06:24:04.809Z,3.25
2023-03-29T06:26:31.724Z,3.80
2023-03-29T06:28:58.564Z,3.92
2023-03-29T06:31:25.487Z,2.88
2023-03-29T06:33:52.360Z,2.95
2023-03-29T06:36:20.371Z,2.83
2023-03-29T06:38:47.388Z,3.15
2023-03-29T06:41:15.060Z,2.53
2023-03-29T06:43:42.062Z,3.10
2023-03-29T06:46:12.272Z,2.88
2023-03-29T06:48:41.145Z,2.72
2023-03-29T06:51:08.713Z,3.25
2023-03-29T06:53:36.880Z,2.60
2023-03-29T06:56:09.474Z,3.63
2023-03-29T07:01:04.870Z,5.07
2023-03-29T07:03:35.106Z,7.38
2023-03-29T07:06:09.947Z,2.97
2023-03-29T07:08:43.957Z,3.05
2023-03-29T07:11:13.271Z,12.60
2023-03-29T07:13:42.745Z,21.15
2023-03-29T07:16:14.033Z,14.27
2023-03-29T07:18:43.120Z,5.22
2023-03-29T07:21:12.577Z,10.50
2023-03-29T07:23:40.858Z,4.53
2023-03-29T07:26:08.699Z,2.45
2023-03-29T07:28:37.692Z,3.83
2023-03-29T07:31:11.264Z,3.78
2023-03-29T07:33:39.479Z,2.30
2023-03-29T07:36:07.178Z,2.13
2023-03-29T07:38:34.180Z,2.88
2023-03-29T07:41:06.971Z,2.45
2023-03-29T07:46:06.491Z,3.38
2023-03-29T07:48:34.025Z,2.70
2023-03-29T07:51:01.673Z,3.28
2023-03-29T07:53:29.921Z,3.28
2023-03-29T07:55:57.268Z,2.33
2023-03-29T07:58:24.285Z,2.78
2023-03-29T08:00:51.164Z,2.40
2023-03-29T08:03:18.313Z,2.92
2023-03-29T08:05:45.293Z,3.70
2023-03-29T08:08:12.601Z,2.70
2023-03-29T08:10:39.689Z,2.40
2023-03-29T08:13:10.073Z,2.85
2023-03-29T08:15:39.630Z,6.65
2023-03-29T08:18:08.230Z,8.18
2023-03-29T08:20:35.182Z,5.38
2023-03-29T08:23:02.108Z,4.88
2023-03-29T08:25:29.099Z,2.60
2023-03-29T08:27:56.076Z,4.57
2023-03-29T08:30:22.929Z,3.50
2023-03-29T08:32:52.955Z,2.65
2023-03-29T08:35:21.475Z,3.60
2023-03-29T08:37:48.264Z,4.03
2023-03-29T08:40:26.560Z,4.35
2023-03-29T08:43:11.442Z,3.90
2023-03-29T08:45:56.205Z,2.30
2023-03-29T08:48:42.513Z,2.53
2023-03-29T08:51:29.719Z,2.53
2023-03-29T08:54:04.388Z,2.30
2023-03-29T08:56:35.556Z,3.85
2023-03-29T08:59:02.774Z,3.40
2023-03-29T09:01:35.608Z,2.67
2023-03-29T09:06:41.761Z,4.25
2023-03-29T09:09:35.055Z,2.72
2023-03-29T09:12:16.930Z,3.20
2023-03-29T09:15:15.679Z,1.95
2023-03-29T09:17:59.373Z,2.33
2023-03-29T09:20:45.065Z,2.13
2023-03-29T09:23:34.414Z,1.70
2023-03-29T09:26:34.193Z,3.25
2023-03-29T09:29:50.437Z,2.30
2023-03-29T09:32:47.033Z,2.20
2023-03-29T09:35:18.850Z,2.45
2023-03-29T09:37:48.165Z,1.67
2023-03-29T09:40:25.472Z,2.20
2023-03-29T09:42:55.209Z,1.40
2023-03-29T09:45:22.183Z,2.38
2023-03-29T09:48:10.676Z,1.55
2023-03-29T09:50:43.946Z,2.00
2023-03-29T09:53:11.021Z,2.20
2023-03-29T09:55:40.368Z,2.28
2023-03-29T09:58:24.056Z,2.67
2023-03-29T10:00:51.728Z,2.42
2023-03-29T10:03:27.648Z,2.20
2023-03-29T10:05:58.875Z,2.08
2023-03-29T10:08:36.089Z,2.85
2023-03-29T10:11:31.653Z,1.95
2023-03-29T10:14:21.625Z,1.58
2023-03-29T10:16:56.598Z,2.08
2023-03-29T10:19:35.124Z,2.38
2023-03-29T10:22:18.382Z,2.08
2023-03-29T10:27:37.002Z,2.13
2023-03-29T10:30:13.374Z,1.73
2023-03-29T10:32:41.614Z,3.03
2023-03-29T10:35:16.995Z,1.90
2023-03-29T10:37:49.590Z,3.30
2023-03-29T10:40:22.693Z,1.92
2023-03-29T10:42:52.097Z,3.25
2023-03-29T10:45:26.108Z,2.30
2023-03-29T10:47:57.769Z,2.60
2023-03-29T10:50:32.777Z,3.03
2023-03-29T10:53:00.072Z,3.28
2023-03-29T10:56:12.442Z,2.95
2023-03-29T10:59:30.299Z,4.03
2023-03-29T11:02:15.425Z,3.70
2023-03-29T11:05:13.814Z,2.13
2023-03-29T11:08:10.035Z,3.50
2023-03-29T11:10:58.121Z,3.08
2023-03-29T11:13:53.539Z,2.60
2023-03-29T11:16:39.538Z,1.50
2023-03-29T11:19:28.337Z,2.42
2023-03-29T11:22:03.793Z,1.70
2023-03-29T11:25:04.677Z,2.17
2023-03-29T11:28:01.588Z,2.15
2023-03-29T11:30:37.081Z,1.98
2023-03-29T11:33:34.010Z,2.55
2023-03-29T11:36:29.849Z,2.55
2023-03-29T11:39:12.209Z,1.77
2023-03-29T11:41:44.273Z,1.87
2023-03-29T11:44:19.856Z,1.70
2023-03-29T11:46:57.132Z,1.90
2023-03-29T11:49:30.845Z,6.68
2023-03-29T11:52:14.921Z,2.55
2023-03-29T11:54:49.475Z,2.10
2023-03-29T11:57:31.464Z,1.70
2023-03-29T12:00:31.815Z,1.70
2023-03-29T12:03:07.051Z,2.75
2023-03-29T12:05:43.596Z,1.60
2023-03-29T12:08:35.965Z,1.80
2023-03-29T12:11:17.409Z,1.48
2023-03-29T12:14:06.126Z,1.80
2023-03-29T12:16:44.242Z,1.30
2023-03-29T12:19:22.114Z,0.80
2023-03-29T12:21:49.677Z,1.00
2023-03-29T12:24:18.327Z,1.00
2023-03-29T12:27:03.236Z,1.10
2023-03-29T12:29:39.012Z,1.60
2023-03-29T12:32:58.892Z,0.90
2023-03-29T12:35:59.219Z,0.70
2023-03-29T12:38:30.699Z,2.20
2023-03-29T12:41:02.158Z,1.17
2023-03-29T12:43:38.090Z,1.15
2023-03-29T12:46:20.199Z,0.93
2023-03-29T12:48:51.741Z,0.70
2023-03-29T12:51:23.660Z,0.90
2023-03-29T12:53:54.213Z,0.65
2023-03-29T12:56:24.413Z,1.02
2023-03-29T12:58:59.073Z,0.60
2023-03-29T13:01:37.925Z,0.70
2023-03-29T13:04:17.775Z,0.50
2023-03-29T13:06:47.636Z,0.88
2023-03-29T13:09:35.449Z,0.50
2023-03-29T13:12:10.867Z,0.40
2023-03-29T13:14:43.277Z,0.50
2023-03-29T13:17:26.688Z,0.40
2023-03-29T13:20:37.761Z,0.77
2023-03-29T13:23:41.199Z,0.40
2023-03-29T13:26:35.739Z,0.40
2023-03-29T13:29:24.201Z,0.35
2023-03-29T13:32:15.006Z,0.63
2023-03-29T13:35:02.844Z,0.45
2023-03-29T13:37:54.402Z,0.45
2023-03-29T13:40:32.042Z,0.88
2023-03-29T13:43:18.873Z,0.50
2023-03-29T13:46:21.450Z,0.73
2023-03-29T13:49:20.695Z,0.50
2023-03-29T13:51:53.955Z,0.50
2023-03-29T13:54:28.992Z,0.70
2023-03-29T13:57:17.453Z,0.50
2023-03-29T14:00:12.095Z,1.00
2023-03-29T14:02:51.757Z,0.60
2023-03-29T14:05:25.138Z,0.80
2023-03-29T14:07:54.723Z,0.55
2023-03-29T14:10:37.284Z,1.33
2023-03-29T14:13:04.743Z,2.40
2023-03-29T14:15:57.534Z,3.67
2023-03-29T14:18:26.712Z,2.80
2023-03-29T14:20:56.340Z,3.08
2023-03-29T14:23:27.320Z,4.13
2023-03-29T14:25:54.260Z,2.60
2023-03-29T14:28:25.163Z,2.00
2023-03-29T14:30:53.218Z,3.40
2023-03-29T14:33:34.821Z,3.85
2023-03-29T14:36:04.380Z,2.97
2023-03-29T14:38:32.592Z,1.63
2023-03-29T14:41:01.080Z,1.40
2023-03-29T14:43:31.501Z,1.08
2023-03-29T14:46:01.809Z,0.90
2023-03-29T14:48:29.235Z,1.05
2023-03-29T14:50:56.416Z,0.90
2023-03-29T14:53:24.499Z,1.10
2023-03-29T14:55:53.448Z,1.00
2023-03-29T14:58:46.738Z,0.77
2023-03-29T15:01:20.603Z,0.60
2023-03-29T15:04:11.209Z,0.90
2023-03-29T15:06:43.927Z,0.90
2023-03-29T15:09:35.144Z,0.50
2023-03-29T15:12:03.865Z,1.10
2023-03-29T15:14:34.244Z,0.63
2023-03-29T15:17:49.523Z,1.05
2023-03-29T15:20:26.590Z,0.50
2023-03-29T15:23:04.885Z,0.85
2023-03-29T15:25:47.979Z,0.95
2023-03-29T15:28:31.332Z,1.23
2023-03-29T15:31:10.320Z,0.90
2023-03-29T15:33:40.354Z,0.50
2023-03-29T15:36:10.189Z,1.48
2023-03-29T15:38:44.021Z,0.75
2023-03-29T15:41:14.667Z,0.93
2023-03-29T15:43:42.210Z,1.23
2023-03-29T15:46:12.413Z,1.08
2023-03-29T15:48:39.421Z,1.20
2023-03-29T15:51:07.204Z,1.38
2023-03-29T15:53:34.379Z,0.70
2023-03-29T15:56:02.852Z,0.60
2023-03-29T15:58:36.701Z,1.05
2023-03-29T16:01:35.836Z,0.90
2023-03-29T16:04:11.355Z,1.17
2023-03-29T16:06:39.128Z,0.50
2023-03-29T16:09:07.327Z,0.50
2023-03-29T16:11:35.280Z,0.65
2023-03-29T16:14:02.353Z,1.85
2023-03-29T16:16:29.463Z,0.80
2023-03-29T16:18:56.571Z,1.08
2023-03-29T16:21:25.671Z,1.80
2023-03-29T16:23:54.499Z,1.25
2023-03-29T16:26:38.255Z,0.73
2023-03-29T16:40:29.293Z,0.85
2023-03-29T16:55:05.832Z,1.23
2023-03-29T17:00:36.156Z,2.05
2023-03-29T17:06:46.789Z,3.38
2023-03-29T17:09:20.291Z,3.17
2023-03-29T17:12:29.325Z,2.83
2023-03-29T17:18:46.095Z,1.50
2023-03-29T17:21:13.071Z,1.30
2023-03-29T17:23:39.899Z,2.33
2023-03-29T17:26:07.297Z,2.45
2023-03-29T17:28:34.696Z,3.53
2023-03-29T17:31:09.823Z,13.38
2023-03-29T17:33:36.829Z,12.45
2023-03-29T17:36:06.272Z,8.10
2023-03-29T17:38:34.435Z,2.95
2023-03-29T17:41:03.059Z,2.67
2023-03-29T17:43:30.587Z,1.95
2023-03-29T17:45:57.741Z,2.40
2023-03-29T17:48:25.091Z,3.33
2023-03-29T17:50:52.140Z,2.05
2023-03-29T17:53:19.289Z,1.83
2023-03-29T17:55:46.171Z,2.85
2023-03-29T17:58:14.695Z,2.97
2023-03-29T18:00:41.547Z,2.70
2023-03-29T18:03:08.485Z,1.75
2023-03-29T18:05:36.322Z,1.58
2023-03-29T18:08:03.732Z,3.40
2023-03-29T18:10:30.822Z,3.70
2023-03-29T18:12:57.656Z,4.05
2023-03-29T18:15:24.538Z,5.00
2023-03-29T18:17:51.397Z,3.20
2023-03-29T18:20:18.621Z,3.47
2023-03-29T18:22:45.622Z,3.13
2023-03-29T18:25:13.131Z,2.53
2023-03-29T18:27:40.627Z,2.88
2023-03-29T18:30:08.946Z,2.25
2023-03-29T18:32:36.604Z,5.55
2023-03-29T18:35:03.880Z,5.75
2023-03-29T18:37:31.254Z,2.55
2023-03-29T18:39:58.202Z,1.92
2023-03-29T18:42:25.217Z,2.38
2023-03-29T18:44:52.079Z,3.08
2023-03-29T18:47:18.950Z,2.70
2023-03-29T18:49:45.987Z,1.70
2023-03-29T18:52:13.087Z,2.30
2023-03-29T18:54:40.044Z,3.10
2023-03-29T18:57:06.989Z,4.65
2023-03-29T18:59:36.205Z,2.97
2023-03-29T19:02:04.271Z,4.18
2023-03-29T19:04:31.238Z,6.15
2023-03-29T19:06:59.975Z,5.07
2023-03-29T19:09:27.955Z,3.17
2023-03-29T19:11:54.782Z,3.25
2023-03-29T19:14:24.357Z,2.42
2023-03-29T19:16:54.185Z,2.63
2023-03-29T19:19:23.523Z,2.75
2023-03-29T19:21:50.496Z,2.13
2023-03-29T19:24:17.960Z,3.40
2023-03-29T19:26:45.666Z,1.75
2023-03-29T19:29:12.712Z,3.13
2023-03-29T19:31:39.805Z,1.40
2023-03-29T19:34:09.768Z,1.30
2023-03-29T19:36:37.621Z,1.25
2023-03-29T19:39:05.837Z,0.75
2023-03-29T19:41:32.823Z,1.10
2023-03-29T19:43:59.758Z,1.55
2023-03-29T19:46:28.543Z,2.42
2023-03-29T19:48:56.377Z,1.67
2023-03-29T19:51:24.123Z,1.77
2023-03-29T19:53:51.020Z,6.45
2023-03-29T19:56:18.016Z,6.82
2023-03-29T19:58:44.989Z,5.30
2023-03-29T20:01:11.852Z,1.70
2023-03-29T20:03:40.439Z,2.75
2023-03-29T20:06:10.599Z,4.72
2023-03-29T20:08:39.088Z,4.60
2023-03-29T20:11:10.608Z,2.22
2023-03-29T20:13:39.346Z,1.60
2023-03-29T20:16:12.806Z,0.98
2023-03-29T20:18:39.995Z,1.25
2023-03-29T20:21:09.043Z,3.15
2023-03-29T20:23:36.585Z,2.15
2023-03-29T20:26:03.739Z,2.65
2023-03-29T20:28:30.704Z,2.75
2023-03-29T20:30:57.503Z,1.50
2023-03-29T20:33:24.400Z,1.10
2023-03-29T20:35:51.358Z,1.63
2023-03-29T20:38:18.292Z,1.35
2023-03-29T20:40:45.155Z,1.13
2023-03-29T20:43:13.722Z,0.82
2023-03-29T20:45:52.822Z,0.70
2023-03-29T20:48:24.928Z,0.82
2023-03-29T20:50:51.945Z,0.70
2023-03-29T20:53:20.813Z,0.98
2023-03-29T20:55:48.243Z,1.58
2023-03-29T20:58:16.112Z,1.10
2023-03-29T21:00:43.838Z,1.05
2023-03-29T21:03:11.331Z,1.35
2023-03-29T21:05:39.078Z,1.45
2023-03-29T21:08:06.383Z,0.90
2023-03-29T21:10:33.512Z,0.90
2023-03-29T21:13:00.759Z,1.30
2023-03-29T21:15:31.215Z,1.27
2023-03-29T21:17:58.712Z,1.45
2023-03-29T21:20:26.073Z,2.05
2023-03-29T21:22:52.963Z,2.28
2023-03-29T21:25:19.933Z,2.47
2023-03-29T21:27:46.845Z,3.40
2023-03-29T21:30:14.119Z,7.30
2023-03-29T21:32:41.754Z,5.93
2023-03-29T21:35:09.838Z,3.72
2023-03-29T21:37:36.904Z,3.28
2023-03-29T21:40:06.222Z,2.72
2023-03-29T21:42:34.562Z,4.22
2023-03-29T21:45:01.967Z,3.92
2023-03-29T21:47:29.326Z,2.80
2023-03-29T21:49:56.257Z,2.10
2023-03-29T21:52:23.198Z,2.00
2023-03-29T21:54:50.208Z,2.40
2023-03-29T21:57:17.091Z,2.17
2023-03-29T21:59:44.019Z,2.80
2023-03-29T22:02:11.021Z,2.03
2023-03-29T22:04:38.044Z,2.83
2023-03-29T22:07:06.253Z,1.73
2023-03-29T22:09:37.538Z,1.70
2023-03-29T22:12:05.025Z,1.45
2023-03-29T22:14:35.377Z,2.65
2023-03-29T22:17:06.285Z,1.92
2023-03-29T22:19:39.399Z,1.58
2023-03-29T22:22:07.393Z,1.65
2023-03-29T22:24:34.270Z,2.17
2023-03-29T22:27:01.136Z,2.05
2023-03-29T22:29:28.000Z,1.55
2023-03-29T22:31:54.851Z,2.33
2023-03-29T22:34:21.809Z,1.83
2023-03-29T22:36:48.737Z,3.20
2023-03-29T22:39:16.124Z,1.63
2023-03-29T22:41:43.080Z,1.60
2023-03-29T22:44:09.940Z,2.08
2023-03-29T22:46:36.866Z,1.30
2023-03-29T22:49:04.244Z,1.45
2023-03-29T22:51:31.306Z,1.52
2023-03-29T22:53:58.248Z,1.88
2023-03-29T22:56:25.624Z,1.40
2023-03-29T22:58:52.443Z,1.67
2023-03-29T23:01:19.316Z,2.15
2023-03-29T23:03:46.393Z,1.45
2023-03-29T23:06:13.269Z,1.58
2023-03-29T23:08:40.128Z,1.02
2023-03-29T23:11:07.557Z,1.30
2023-03-29T23:13:35.363Z,1.35
2023-03-29T23:16:03.906Z,1.85
2023-03-29T23:18:35.001Z,1.67
2023-03-29T23:21:05.272Z,2.17
2023-03-29T23:23:32.784Z,0.85
2023-03-29T23:25:59.657Z,1.58
2023-03-29T23:28:30.805Z,1.55
2023-03-29T23:31:06.986Z,2.08
2023-03-29T23:33:36.045Z,2.05
2023-03-29T23:36:06.267Z,1.45
2023-03-29T23:38:35.551Z,1.30
2023-03-29T23:41:06.513Z,1.00
2023-03-29T23:43:37.429Z,1.80
2023-03-29T23:46:14.265Z,1.40
2023-03-29T23:48:49.237Z,1.35
2023-03-29T23:51:23.697Z,1.20
2023-03-29T23:53:51.398Z,2.30
2023-03-29T23:56:18.259Z,2.03
2023-03-29T23:58:45.171Z,2.15
